Time;durP1;ratioP1;P1;durP2;ratioP2;P2;SDS_P1;SDS_P2;PMS_P1;PMS_P2;Temp;Humidity;BMP_temperature;BMP_pressure;BME280_temperature;BME280_humidity;BME280_pressure;Samples;Min_cycle;Max_cycle;Signal;HPM_P1;HPM_P2
2022/05/04 00:00:09;;;;;;;21.77;11.68;;;;;;;;;;5010849;28;20164;-78
2022/05/04 00:02:35;;;;;;;14.27;9.63;;;;;;;;;;5012099;28;20417;-78
2022/05/04 00:05:01;;;;;;;14.25;11.00;;;;;;;;;;5012198;28;20064;-76
2022/05/04 00:07:27;;;;;;;12.23;8.07;;;;;;;;;;5012289;28;20042;-78
2022/05/04 00:09:55;;;;;;;14.32;8.25;;;;;;;;;;5012262;28;20149;-77
2022/05/04 00:12:21;;;;;;;14.40;8.15;;;;;;;;;;5012393;28;20060;-77
2022/05/04 00:14:47;;;;;;;15.18;10.65;;;;;;;;;;5010918;28;20037;-77
2022/05/04 00:17:13;;;;;;;10.70;7.70;;;;;;;;;;5010805;28;20128;-77
2022/05/04 00:19:39;;;;;;;12.43;7.20;;;;;;;;;;5007033;28;20116;-78
2022/05/04 00:22:05;;;;;;;13.00;8.65;;;;;;;;;;5009766;28;20022;-78
2022/05/04 00:24:32;;;;;;;9.93;7.32;;;;;;;;;;4992204;28;20540;-78
2022/05/04 00:26:58;;;;;;;12.00;7.10;;;;;;;;;;4992454;28;20018;-79
2022/05/04 00:29:24;;;;;;;10.52;7.72;;;;;;;;;;5007359;28;20065;-77
2022/05/04 00:31:50;;;;;;;11.70;7.55;;;;;;;;;;5007385;28;20041;-78
2022/05/04 00:34:17;;;;;;;14.30;9.90;;;;;;;;;;4992702;28;20501;-78
2022/05/04 00:36:43;;;;;;;13.15;9.35;;;;;;;;;;4992352;28;20028;-77
2022/05/04 00:39:09;;;;;;;13.02;8.23;;;;;;;;;;4992554;28;20126;-78
2022/05/04 00:41:35;;;;;;;13.18;8.48;;;;;;;;;;4992327;28;20462;-77
2022/05/04 00:44:01;;;;;;;13.00;8.50;;;;;;;;;;5007374;28;20066;-77
2022/05/04 00:46:27;;;;;;;10.43;7.32;;;;;;;;;;4992255;28;20026;-78
2022/05/04 00:48:53;;;;;;;14.80;9.25;;;;;;;;;;5007270;28;20105;-77
2022/05/04 00:51:19;;;;;;;18.25;9.60;;;;;;;;;;5007275;28;20027;-77
2022/05/04 00:53:46;;;;;;;10.75;7.88;;;;;;;;;;4992194;28;20019;-77
2022/05/04 00:56:12;;;;;;;11.38;8.57;;;;;;;;;;4991948;28;20106;-77
2022/05/04 00:58:57;;;;;;;10.73;8.88;;;;;;;;;;4992064;28;20022;-77
2022/05/04 01:01:27;;;;;;;12.07;7.85;;;;;;;;;;5010054;28;20027;-78
2022/05/04 01:03:53;;;;;;;10.73;7.68;;;;;;;;;;4995544;28;20089;-77
2022/05/04 01:06:19;;;;;;;12.05;7.88;;;;;;;;;;5010762;28;20050;-76
2022/05/04 01:08:46;;;;;;;14.75;8.80;;;;;;;;;;4996034;28;20030;-77
2022/05/04 01:11:12;;;;;;;10.10;7.25;;;;;;;;;;5010824;28;20031;-77
2022/05/04 01:13:38;;;;;;;11.38;7.32;;;;;;;;;;4995820;28;20023;-77
2022/05/04 01:16:04;;;;;;;10.90;7.38;;;;;;;;;;5010695;28;20033;-76
2022/05/04 01:18:30;;;;;;;12.10;8.65;;;;;;;;;;5010702;28;20018;-79
2022/05/04 01:20:56;;;;;;;11.55;7.22;;;;;;;;;;4995466;28;20046;-77
2022/05/04 01:23:22;;;;;;;11.25;7.82;;;;;;;;;;4995539;28;20033;-76
2022/05/04 01:25:53;;;;;;;11.13;8.05;;;;;;;;;;5010519;28;20018;-75
2022/05/04 01:28:19;;;;;;;14.38;7.68;;;;;;;;;;5010316;28;20056;-77
2022/05/04 01:30:45;;;;;;;11.48;8.10;;;;;;;;;;5010437;28;20050;-78
2022/05/04 01:33:11;;;;;;;12.13;7.28;;;;;;;;;;5010440;28;20026;-77
2022/05/04 01:35:38;;;;;;;13.68;7.55;;;;;;;;;;4995564;28;20026;-76
2022/05/04 01:38:04;;;;;;;11.50;7.60;;;;;;;;;;5010294;28;20060;-76
2022/05/04 01:40:31;;;;;;;14.75;8.98;;;;;;;;;;5010124;28;20041;-77
2022/05/04 01:42:57;;;;;;;12.82;8.93;;;;;;;;;;4995393;28;20101;-76
2022/05/04 01:45:23;;;;;;;11.40;8.52;;;;;;;;;;5010190;28;20429;-75
2022/05/04 01:47:50;;;;;;;13.25;9.70;;;;;;;;;;5010046;28;20028;-76
2022/05/04 01:50:17;;;;;;;13.10;9.48;;;;;;;;;;4995075;28;20508;-76
2022/05/04 01:52:43;;;;;;;11.90;9.25;;;;;;;;;;4994905;28;20054;-78
2022/05/04 01:55:09;;;;;;;15.80;11.35;;;;;;;;;;4994909;28;20022;-76
2022/05/04 01:57:37;;;;;;;13.57;8.77;;;;;;;;;;4994534;28;20022;-76
2022/05/04 02:00:04;;;;;;;16.40;9.45;;;;;;;;;;4994662;28;20130;-76
2022/05/04 02:02:30;;;;;;;14.15;9.45;;;;;;;;;;5009882;28;20022;-76
2022/05/04 02:04:56;;;;;;;11.57;8.73;;;;;;;;;;4994956;28;20050;-75
2022/05/04 02:07:22;;;;;;;14.95;8.27;;;;;;;;;;4994925;28;20434;-76
2022/05/04 02:09:49;;;;;;;14.27;9.90;;;;;;;;;;5009611;28;20026;-78
2022/05/04 02:12:15;;;;;;;12.52;9.40;;;;;;;;;;5008505;28;20057;-78
2022/05/04 02:14:41;;;;;;;13.27;9.68;;;;;;;;;;5009547;28;20053;-77
2022/05/04 02:17:07;;;;;;;13.57;9.27;;;;;;;;;;4994512;28;20018;-77
2022/05/04 02:19:33;;;;;;;15.25;9.07;;;;;;;;;;5009406;28;20053;-77
2022/05/04 02:21:59;;;;;;;15.68;9.88;;;;;;;;;;4994648;28;20105;-78
2022/05/04 02:24:25;;;;;;;14.48;9.50;;;;;;;;;;5009355;28;20375;-78
2022/05/04 02:26:51;;;;;;;15.48;9.60;;;;;;;;;;4994317;28;20022;-77
2022/05/04 02:29:17;;;;;;;15.43;10.55;;;;;;;;;;5009349;28;20030;-78
2022/05/04 02:31:43;;;;;;;14.88;10.60;;;;;;;;;;5009301;28;20037;-78
2022/05/04 02:34:09;;;;;;;17.50;10.75;;;;;;;;;;5009303;28;20109;-77
2022/05/04 02:39:20;;;;;;;20.98;12.98;;;;;;;;;;4994029;28;20048;-76
2022/05/04 02:41:48;;;;;;;19.83;10.43;;;;;;;;;;5009152;28;20181;-76
2022/05/04 02:44:14;;;;;;;17.90;11.65;;;;;;;;;;5009059;28;20022;-78
2022/05/04 02:46:40;;;;;;;18.17;10.43;;;;;;;;;;4994305;28;20378;-77
2022/05/04 02:49:07;;;;;;;15.00;9.55;;;;;;;;;;5009053;28;20489;-76
2022/05/04 02:51:33;;;;;;;14.80;9.18;;;;;;;;;;4994008;28;20050;-76
2022/05/04 02:53:59;;;;;;;15.13;9.18;;;;;;;;;;4993805;28;20026;-75
2022/05/04 02:56:25;;;;;;;16.13;10.27;;;;;;;;;;4994109;28;20053;-76
2022/05/04 02:58:53;;;;;;;14.18;10.65;;;;;;;;;;4993986;28;20030;-76
2022/05/04 03:04:08;;;;;;;11.80;7.82;;;;;;;;;;4994827;28;20573;-84
2022/05/04 03:06:35;;;;;;;12.23;8.10;;;;;;;;;;5009517;28;20133;-83
2022/05/04 03:09:02;;;;;;;15.55;10.75;;;;;;;;;;5009098;28;20122;-80
2022/05/04 03:14:12;;;;;;;15.70;10.13;;;;;;;;;;4993575;28;20033;-81
2022/05/04 03:16:39;;;;;;;16.10;10.60;;;;;;;;;;4993950;28;20482;-82
2022/05/04 03:19:06;;;;;;;14.63;10.38;;;;;;;;;;4993951;28;20037;-82
2022/05/04 03:21:32;;;;;;;19.80;11.38;;;;;;;;;;5008978;28;20026;-82
2022/05/04 03:23:58;;;;;;;20.58;12.32;;;;;;;;;;4993434;28;20027;-82
2022/05/04 03:26:24;;;;;;;22.83;14.90;;;;;;;;;;4993552;28;20029;-81
2022/05/04 03:28:51;;;;;;;18.50;13.10;;;;;;;;;;4993605;28;20026;-81
2022/05/04 03:31:17;;;;;;;18.35;11.52;;;;;;;;;;4993709;28;20026;-82
2022/05/04 03:33:44;;;;;;;20.58;12.23;;;;;;;;;;4993593;28;20478;-82
2022/05/04 03:36:10;;;;;;;23.40;13.07;;;;;;;;;;5008794;28;20022;-81
2022/05/04 03:38:37;;;;;;;21.25;12.32;;;;;;;;;;4993510;28;20019;-81
2022/05/04 03:41:03;;;;;;;20.48;12.23;;;;;;;;;;5008513;28;20121;-83
2022/05/04 03:43:29;;;;;;;17.77;11.63;;;;;;;;;;5008622;28;20018;-82
2022/05/04 03:45:55;;;;;;;21.90;12.38;;;;;;;;;;4993353;28;20462;-82
2022/05/04 03:48:22;;;;;;;21.30;12.65;;;;;;;;;;5008475;28;20026;-82
2022/05/04 03:50:48;;;;;;;22.33;12.00;;;;;;;;;;4993475;28;20099;-83
2022/05/04 03:53:14;;;;;;;20.95;11.55;;;;;;;;;;4993449;28;20031;-82
2022/05/04 03:55:40;;;;;;;22.35;12.10;;;;;;;;;;5008518;28;20069;-80
2022/05/04 03:58:06;;;;;;;28.38;13.10;;;;;;;;;;5008376;28;20441;-83
2022/05/04 04:00:32;;;;;;;24.15;14.00;;;;;;;;;;4992415;28;20038;-82
2022/05/04 04:02:58;;;;;;;21.40;11.63;;;;;;;;;;5007441;28;20481;-81
2022/05/04 04:05:24;;;;;;;23.77;12.93;;;;;;;;;;4994994;28;20026;-82
2022/05/04 04:07:50;;;;;;;20.33;12.00;;;;;;;;;;4993014;28;20085;-83
2022/05/04 04:10:16;;;;;;;19.95;11.43;;;;;;;;;;4993023;28;20109;-86
2022/05/04 04:12:42;;;;;;;21.67;11.75;;;;;;;;;;4994961;28;20030;-87
2022/05/04 04:15:09;;;;;;;22.50;12.18;;;;;;;;;;4995278;28;20019;-85
2022/05/04 04:17:35;;;;;;;29.00;12.85;;;;;;;;;;4994541;28;20045;-86
2022/05/04 04:22:45;;;;;;;16.33;11.30;;;;;;;;;;4993191;28;20053;-86
2022/05/04 04:25:11;;;;;;;23.50;16.25;;;;;;;;;;4993137;28;20038;-85
2022/05/04 04:27:38;;;;;;;23.08;16.02;;;;;;;;;;4993198;28;20027;-85
2022/05/04 04:30:04;;;;;;;26.15;12.10;;;;;;;;;;4993161;28;20030;-86
2022/05/04 04:32:30;;;;;;;25.05;12.32;;;;;;;;;;4993238;28;20504;-85
2022/05/04 04:34:56;;;;;;;13.93;10.48;;;;;;;;;;4993599;28;20114;-89
2022/05/04 04:37:22;;;;;;;23.20;12.20;;;;;;;;;;4999031;28;20057;-89
2022/05/04 04:39:48;;;;;;;20.33;12.63;;;;;;;;;;4999966;28;20041;-89
2022/05/04 04:42:14;;;;;;;16.77;10.02;;;;;;;;;;4997780;28;20022;-85
2022/05/04 04:44:40;;;;;;;23.67;11.35;;;;;;;;;;4996436;28;20580;-84
2022/05/04 04:47:06;;;;;;;23.90;11.40;;;;;;;;;;4997573;28;20026;-88
2022/05/04 04:49:32;;;;;;;18.60;12.07;;;;;;;;;;4998867;28;20022;-88
2022/05/04 04:51:58;;;;;;;26.20;13.55;;;;;;;;;;4997240;28;20092;-85
2022/05/04 04:54:24;;;;;;;17.80;11.35;;;;;;;;;;4997403;28;20591;-83
2022/05/04 04:56:50;;;;;;;19.25;11.90;;;;;;;;;;4996990;28;20026;-87
2022/05/04 04:59:16;;;;;;;19.50;12.10;;;;;;;;;;5012456;28;20065;-88
2022/05/04 05:01:42;;;;;;;22.35;12.73;;;;;;;;;;4997266;28;20097;-89
2022/05/04 05:04:08;;;;;;;34.35;12.63;;;;;;;;;;4997182;28;20030;-89
2022/05/04 05:06:34;;;;;;;21.42;11.02;;;;;;;;;;4997361;28;20494;-84
2022/05/04 05:09:00;;;;;;;20.60;11.10;;;;;;;;;;4996684;28;20034;-89
2022/05/04 05:11:27;;;;;;;18.15;10.80;;;;;;;;;;4998682;28;20021;-89
2022/05/04 05:16:37;;;;;;;19.02;11.23;;;;;;;;;;4997113;28;20076;-88
2022/05/04 05:19:04;;;;;;;25.52;12.13;;;;;;;;;;4997254;28;20038;-83
2022/05/04 05:21:30;;;;;;;24.58;12.45;;;;;;;;;;4997575;28;20033;-88
2022/05/04 05:23:56;;;;;;;29.83;13.00;;;;;;;;;;4994602;28;20134;-80
2022/05/04 05:26:22;;;;;;;16.48;10.80;;;;;;;;;;4995769;28;20026;-80
2022/05/04 05:28:48;;;;;;;17.05;11.52;;;;;;;;;;4997566;28;20017;-80
2022/05/04 05:31:14;;;;;;;17.83;10.75;;;;;;;;;;4997554;28;20018;-80
2022/05/04 05:33:40;;;;;;;25.50;13.02;;;;;;;;;;4994530;28;20069;-80
2022/05/04 05:36:07;;;;;;;27.40;13.65;;;;;;;;;;4994365;28;20022;-79
2022/05/04 05:38:33;;;;;;;25.02;13.05;;;;;;;;;;4996276;28;20041;-80
2022/05/04 05:41:01;;;;;;;16.95;12.48;;;;;;;;;;4994905;28;20516;-78
2022/05/04 05:43:28;;;;;;;25.95;13.10;;;;;;;;;;4995559;28;20023;-79
2022/05/04 05:45:54;;;;;;;27.33;12.55;;;;;;;;;;4998237;28;20018;-81
2022/05/04 05:48:20;;;;;;;20.80;12.93;;;;;;;;;;4997663;28;20037;-79
2022/05/04 05:50:47;;;;;;;16.38;12.10;;;;;;;;;;5010323;28;20045;-80
2022/05/04 05:53:14;;;;;;;20.20;14.45;;;;;;;;;;4998954;28;20022;-82
2022/05/04 05:55:41;;;;;;;19.10;11.57;;;;;;;;;;5000555;28;20056;-84
2022/05/04 05:58:07;;;;;;;21.58;12.70;;;;;;;;;;5008372;28;20081;-84
2022/05/04 06:00:33;;;;;;;20.98;12.77;;;;;;;;;;5013859;28;20034;-85
2022/05/04 06:02:59;;;;;;;20.15;13.43;;;;;;;;;;5013555;28;20461;-87
2022/05/04 06:05:25;;;;;;;19.83;11.68;;;;;;;;;;5013893;28;20491;-85
2022/05/04 06:07:51;;;;;;;14.98;10.90;;;;;;;;;;5011468;28;20045;-84
2022/05/04 06:10:17;;;;;;;16.02;11.48;;;;;;;;;;5013581;28;20107;-82
2022/05/04 06:12:44;;;;;;;18.80;11.75;;;;;;;;;;5012467;28;20022;-85
2022/05/04 06:15:10;;;;;;;17.13;11.07;;;;;;;;;;5013108;28;20048;-85
2022/05/04 06:17:37;;;;;;;18.60;12.02;;;;;;;;;;5015304;28;20473;-86
2022/05/04 06:20:04;;;;;;;14.80;9.85;;;;;;;;;;5024052;28;20108;-86
2022/05/04 06:22:30;;;;;;;15.98;10.25;;;;;;;;;;5020100;28;20064;-85
2022/05/04 06:24:56;;;;;;;14.95;10.48;;;;;;;;;;5014005;28;20124;-86
2022/05/04 06:27:22;;;;;;;16.73;12.05;;;;;;;;;;5012920;28;20150;-84
2022/05/04 06:35:18;;;;;;;20.38;12.82;;;;;;;;;;5015436;28;20036;-85
2022/05/04 06:37:44;;;;;;;16.42;12.57;;;;;;;;;;5015710;28;20026;-85
2022/05/04 06:40:11;;;;;;;21.73;12.23;;;;;;;;;;5016399;28;20052;-84
2022/05/04 06:42:37;;;;;;;23.58;13.02;;;;;;;;;;5015983;28;20075;-86
2022/05/04 06:45:04;;;;;;;21.73;14.25;;;;;;;;;;5015384;28;20410;-86
2022/05/04 06:47:30;;;;;;;17.08;10.07;;;;;;;;;;5015836;28;20021;-86
2022/05/04 06:49:56;;;;;;;18.05;11.05;;;;;;;;;;5016293;28;20097;-87
2022/05/04 06:52:25;;;;;;;15.45;10.18;;;;;;;;;;5015360;28;20047;-86
2022/05/04 06:54:52;;;;;;;16.83;11.13;;;;;;;;;;5014310;28;20076;-85
2022/05/04 06:57:18;;;;;;;20.55;10.27;;;;;;;;;;5016718;28;20018;-86
2022/05/04 06:59:44;;;;;;;25.60;13.07;;;;;;;;;;5017259;28;20129;-85
2022/05/04 07:02:10;;;;;;;16.63;10.63;;;;;;;;;;5016421;28;20076;-84
2022/05/04 07:04:36;;;;;;;20.30;12.23;;;;;;;;;;5015103;28;20018;-85
2022/05/04 07:07:02;;;;;;;16.65;10.85;;;;;;;;;;5017320;28;20093;-85
2022/05/04 07:09:28;;;;;;;15.95;10.90;;;;;;;;;;5018713;28;20088;-86
2022/05/04 07:11:54;;;;;;;20.58;12.18;;;;;;;;;;5019105;28;20113;-85
2022/05/04 07:14:20;;;;;;;20.30;11.27;;;;;;;;;;5019711;28;20109;-85
2022/05/04 07:16:47;;;;;;;15.98;10.80;;;;;;;;;;5018770;28;20030;-85
2022/05/04 07:19:13;;;;;;;19.38;11.23;;;;;;;;;;5016101;28;20061;-85
2022/05/04 07:21:40;;;;;;;16.25;10.35;;;;;;;;;;5021337;28;20026;-84
2022/05/04 07:24:06;;;;;;;19.63;10.65;;;;;;;;;;5016053;28;20481;-85
2022/05/04 07:26:33;;;;;;;15.65;10.70;;;;;;;;;;5013967;28;20022;-85
2022/05/04 07:28:59;;;;;;;18.55;10.25;;;;;;;;;;5013960;28;20013;-85
2022/05/04 07:31:25;;;;;;;17.90;11.13;;;;;;;;;;5012835;28;20018;-87
2022/05/04 07:33:51;;;;;;;19.33;10.93;;;;;;;;;;5014317;28;20049;-85
2022/05/04 07:36:17;;;;;;;15.20;10.07;;;;;;;;;;5003967;28;20030;-83
2022/05/04 07:38:43;;;;;;;16.60;9.85;;;;;;;;;;4994743;28;20031;-83
2022/05/04 07:43:54;;;;;;;14.60;8.90;;;;;;;;;;4998796;28;20037;-85
2022/05/04 07:46:20;;;;;;;21.58;9.50;;;;;;;;;;4998435;28;20023;-82
2022/05/04 07:48:46;;;;;;;15.85;9.63;;;;;;;;;;5011529;28;20509;-85
2022/05/04 07:51:12;;;;;;;20.58;8.88;;;;;;;;;;5013717;28;20089;-85
2022/05/04 07:53:38;;;;;;;21.38;9.52;;;;;;;;;;5012425;28;20061;-85
2022/05/04 07:56:04;;;;;;;15.52;8.40;;;;;;;;;;5010182;28;20027;-84
2022/05/04 07:58:30;;;;;;;15.73;9.15;;;;;;;;;;5009563;28;20024;-83
2022/05/04 08:06:27;;;;;;;18.65;9.45;;;;;;;;;;4998121;28;20057;-82
2022/05/04 08:08:53;;;;;;;19.00;9.25;;;;;;;;;;5014442;28;20049;-84
2022/05/04 08:11:19;;;;;;;14.05;8.35;;;;;;;;;;5011763;28;20026;-84
2022/05/04 08:13:45;;;;;;;12.25;8.85;;;;;;;;;;5009190;28;20050;-84
2022/05/04 08:16:13;;;;;;;14.05;9.35;;;;;;;;;;5010027;28;20109;-84
2022/05/04 08:18:40;;;;;;;11.38;8.30;;;;;;;;;;5012484;28;20092;-85
2022/05/04 08:21:07;;;;;;;9.63;8.10;;;;;;;;;;4996051;28;20080;-85
2022/05/04 08:23:33;;;;;;;15.60;7.45;;;;;;;;;;4998393;28;20029;-82
2022/05/04 08:25:59;;;;;;;17.85;9.23;;;;;;;;;;5016764;28;20022;-83
2022/05/04 08:28:25;;;;;;;12.48;7.07;;;;;;;;;;4994558;28;20054;-84
2022/05/04 08:30:51;;;;;;;18.95;8.18;;;;;;;;;;5009651;28;20026;-82
2022/05/04 08:33:18;;;;;;;17.00;7.32;;;;;;;;;;5010068;28;20019;-83
2022/05/04 08:35:44;;;;;;;13.55;7.32;;;;;;;;;;4996471;28;20014;-81
2022/05/04 08:38:12;;;;;;;19.25;7.47;;;;;;;;;;4995665;28;20335;-84
2022/05/04 08:40:38;;;;;;;14.82;6.78;;;;;;;;;;5011581;28;20041;-82
2022/05/04 08:43:08;;;;;;;11.27;5.63;;;;;;;;;;5013050;28;20069;-83
2022/05/04 08:45:40;;;;;;;9.38;6.15;;;;;;;;;;5012135;28;20786;-83
2022/05/04 08:48:10;;;;;;;8.25;5.32;;;;;;;;;;4999697;28;20030;-82
2022/05/04 08:50:39;;;;;;;13.13;5.35;;;;;;;;;;4996994;28;20018;-82
2022/05/04 08:53:07;;;;;;;9.90;5.53;;;;;;;;;;5010779;28;20114;-84
2022/05/04 08:55:36;;;;;;;10.88;5.82;;;;;;;;;;5012406;28;20070;-83
2022/05/04 08:58:02;;;;;;;11.80;7.45;;;;;;;;;;4998514;28;20065;-83
2022/05/04 09:00:28;;;;;;;7.53;4.70;;;;;;;;;;5011902;28;20166;-81
2022/05/04 09:02:54;;;;;;;6.40;4.65;;;;;;;;;;4994126;28;20031;-85
2022/05/04 09:05:23;;;;;;;10.25;5.63;;;;;;;;;;5009607;28;20570;-83
2022/05/04 09:07:51;;;;;;;10.68;4.30;;;;;;;;;;5008502;28;20038;-82
2022/05/04 09:10:21;;;;;;;10.05;5.10;;;;;;;;;;4993335;28;20018;-85
2022/05/04 09:12:48;;;;;;;8.02;3.80;;;;;;;;;;4994736;28;20030;-84
2022/05/04 09:15:25;;;;;;;9.48;4.35;;;;;;;;;;4993006;28;20029;-84
2022/05/04 09:18:13;;;;;;;5.97;4.05;;;;;;;;;;5012036;28;20027;-82
2022/05/04 09:20:48;;;;;;;9.80;4.80;;;;;;;;;;5008480;28;20490;-81
2022/05/04 09:23:17;;;;;;;7.80;4.20;;;;;;;;;;4994724;28;20019;-82
2022/05/04 09:25:43;;;;;;;6.03;3.38;;;;;;;;;;5021101;28;20150;-81
2022/05/04 09:28:14;;;;;;;5.97;3.55;;;;;;;;;;5015490;28;20015;-85
2022/05/04 09:30:44;;;;;;;8.68;3.72;;;;;;;;;;5012083;28;20470;-83
2022/05/04 09:33:12;;;;;;;4.03;2.95;;;;;;;;;;5010942;28;20705;-83
2022/05/04 09:35:40;;;;;;;4.10;2.55;;;;;;;;;;5013177;28;20033;-83
2022/05/04 09:46:39;;;;;;;9.60;3.80;;;;;;;;;;4996771;28;20114;-83
2022/05/04 09:49:28;;;;;;;5.78;3.42;;;;;;;;;;4995848;28;20051;-81
2022/05/04 09:51:54;;;;;;;8.73;3.80;;;;;;;;;;4995917;28;20406;-81
2022/05/04 09:54:22;;;;;;;7.35;4.97;;;;;;;;;;5014531;28;20022;-83
2022/05/04 09:56:52;;;;;;;5.03;3.10;;;;;;;;;;5013053;28;20489;-82
2022/05/04 09:59:20;;;;;;;8.45;3.38;;;;;;;;;;5014054;28;20078;-79
2022/05/04 10:01:46;;;;;;;5.00;2.95;;;;;;;;;;4998544;28;20022;-82
2022/05/04 10:04:12;;;;;;;8.98;3.50;;;;;;;;;;5010762;28;20022;-82
2022/05/04 10:06:39;;;;;;;7.10;2.90;;;;;;;;;;4995830;28;20047;-83
2022/05/04 10:09:06;;;;;;;7.90;3.00;;;;;;;;;;4995834;28;20069;-83
2022/05/04 10:11:35;;;;;;;4.97;3.13;;;;;;;;;;4995298;28;20031;-82
2022/05/04 10:14:03;;;;;;;3.42;2.53;;;;;;;;;;5010776;28;20501;-82
2022/05/04 10:16:32;;;;;;;4.35;3.22;;;;;;;;;;4995739;28;20492;-83
2022/05/04 10:18:59;;;;;;;7.65;4.65;;;;;;;;;;5012819;28;20023;-83
2022/05/04 10:21:25;;;;;;;6.75;3.17;;;;;;;;;;5002196;28;20030;-84
2022/05/04 10:23:55;;;;;;;4.93;3.45;;;;;;;;;;5004678;28;20022;-83
2022/05/04 10:26:34;;;;;;;7.80;3.30;;;;;;;;;;5020494;28;20023;-84
2022/05/04 10:31:56;;;;;;;5.68;2.70;;;;;;;;;;5001371;28;20077;-83
2022/05/04 10:34:22;;;;;;;3.30;2.17;;;;;;;;;;5000920;28;20050;-83
2022/05/04 10:36:52;;;;;;;6.45;2.30;;;;;;;;;;5018643;28;20026;-82
2022/05/04 10:39:21;;;;;;;4.75;3.00;;;;;;;;;;5017599;28;20018;-82
2022/05/04 10:41:47;;;;;;;6.05;3.20;;;;;;;;;;5010984;28;20062;-81
2022/05/04 10:44:13;;;;;;;3.78;2.50;;;;;;;;;;4994870;28;20446;-83
2022/05/04 10:46:41;;;;;;;4.57;2.45;;;;;;;;;;5010617;28;20026;-82
2022/05/04 10:49:10;;;;;;;5.53;2.45;;;;;;;;;;5016258;28;20069;-83
2022/05/04 10:51:36;;;;;;;4.05;2.78;;;;;;;;;;5001295;28;20018;-82
2022/05/04 10:54:12;;;;;;;4.90;2.20;;;;;;;;;;5019176;28;20124;-83
2022/05/04 10:56:42;;;;;;;5.15;3.10;;;;;;;;;;5005118;28;20027;-84
2022/05/04 10:59:09;;;;;;;7.95;3.05;;;;;;;;;;5023817;28;20042;-83
2022/05/04 11:01:36;;;;;;;5.03;3.22;;;;;;;;;;5006821;28;20026;-84
2022/05/04 11:04:14;;;;;;;5.07;2.55;;;;;;;;;;5007884;28;20054;-82
2022/05/04 11:06:44;;;;;;;3.15;2.20;;;;;;;;;;5007791;28;20050;-82
2022/05/04 11:09:12;;;;;;;4.88;2.90;;;;;;;;;;5025263;28;20042;-83
2022/05/04 11:11:39;;;;;;;4.85;2.58;;;;;;;;;;5012494;28;20018;-82
2022/05/04 11:14:06;;;;;;;11.98;3.63;;;;;;;;;;5027382;28;20030;-83
2022/05/04 11:16:32;;;;;;;3.58;2.22;;;;;;;;;;5025474;28;20386;-83
2022/05/04 11:19:00;;;;;;;14.88;3.83;;;;;;;;;;5021135;28;20174;-84
2022/05/04 11:21:27;;;;;;;11.00;2.78;;;;;;;;;;5021767;28;20030;-82
2022/05/04 11:23:54;;;;;;;4.28;2.97;;;;;;;;;;5006058;28;20018;-82
2022/05/04 11:26:21;;;;;;;5.70;2.50;;;;;;;;;;5016413;28;20054;-82
2022/05/04 11:28:47;;;;;;;5.18;2.70;;;;;;;;;;5012949;28;20023;-83
2022/05/04 11:31:14;;;;;;;4.38;2.83;;;;;;;;;;5020385;28;20049;-83
2022/05/04 11:33:43;;;;;;;5.25;2.50;;;;;;;;;;4998642;28;20022;-82
2022/05/04 11:36:10;;;;;;;5.75;2.78;;;;;;;;;;4999447;28;20041;-82
2022/05/04 11:38:36;;;;;;;7.85;2.97;;;;;;;;;;4999561;28;20486;-81
2022/05/04 11:41:02;;;;;;;4.13;3.22;;;;;;;;;;4998823;28;20119;-81
2022/05/04 11:43:33;;;;;;;6.63;2.83;;;;;;;;;;4995981;28;20023;-82
2022/05/04 11:46:03;;;;;;;4.65;2.33;;;;;;;;;;5009440;28;20089;-81
2022/05/04 11:48:30;;;;;;;6.35;2.65;;;;;;;;;;4995174;28;20015;-82
2022/05/04 11:50:56;;;;;;;6.05;2.75;;;;;;;;;;4995017;28;20022;-82
2022/05/04 11:53:22;;;;;;;3.83;2.42;;;;;;;;;;4997209;28;20026;-83
2022/05/04 11:55:48;;;;;;;5.93;2.42;;;;;;;;;;4994361;28;20046;-81
2022/05/04 11:58:14;;;;;;;4.20;2.50;;;;;;;;;;5008807;28;20026;-81
2022/05/04 12:00:41;;;;;;;4.13;2.20;;;;;;;;;;4993595;28;20042;-82
2022/05/04 12:03:08;;;;;;;5.40;2.88;;;;;;;;;;4993796;28;20144;-79
2022/05/04 12:05:35;;;;;;;4.32;2.55;;;;;;;;;;4994348;28;20030;-82
2022/05/04 12:08:02;;;;;;;7.28;2.47;;;;;;;;;;5016892;28;20389;-83
2022/05/04 12:10:28;;;;;;;4.15;2.10;;;;;;;;;;4994350;28;20025;-78
2022/05/04 12:12:54;;;;;;;4.50;2.55;;;;;;;;;;5009284;28;20018;-80
2022/05/04 12:15:24;;;;;;;5.40;2.20;;;;;;;;;;5011929;28;20058;-83
2022/05/04 12:17:50;;;;;;;4.85;2.13;;;;;;;;;;5013857;28;20018;-78
2022/05/04 12:20:19;;;;;;;12.32;2.67;;;;;;;;;;5010722;28;20044;-78
2022/05/04 12:22:46;;;;;;;4.40;2.50;;;;;;;;;;5010848;28;20543;-78
2022/05/04 12:25:12;;;;;;;5.55;2.63;;;;;;;;;;5012867;28;20018;-77
2022/05/04 12:27:38;;;;;;;3.80;1.90;;;;;;;;;;5012737;28;20018;-79
2022/05/04 12:33:08;;;;;;;6.32;2.38;;;;;;;;;;5018811;28;20558;-79
2022/05/04 12:35:35;;;;;;;5.78;2.05;;;;;;;;;;5008014;28;20026;-79
2022/05/04 12:38:03;;;;;;;4.93;1.80;;;;;;;;;;5012329;28;20057;-78
2022/05/04 12:40:31;;;;;;;4.97;1.75;;;;;;;;;;5012518;28;20393;-78
2022/05/04 12:42:57;;;;;;;1.90;1.45;;;;;;;;;;5011614;28;20191;-80
2022/05/04 12:45:26;;;;;;;4.57;2.67;;;;;;;;;;5012361;28;20051;-78
2022/05/04 12:47:56;;;;;;;2.55;1.50;;;;;;;;;;5012102;28;20488;-78
2022/05/04 12:50:23;;;;;;;3.53;1.90;;;;;;;;;;5012304;28;20068;-78
2022/05/04 12:52:49;;;;;;;3.83;1.83;;;;;;;;;;5010427;28;20033;-77
2022/05/04 12:55:16;;;;;;;3.97;1.90;;;;;;;;;;4995109;28;20450;-78
2022/05/04 12:57:42;;;;;;;2.63;1.70;;;;;;;;;;5009452;28;20046;-78
2022/05/04 13:00:12;;;;;;;2.80;1.42;;;;;;;;;;5015902;28;20518;-79
2022/05/04 13:02:39;;;;;;;3.65;1.67;;;;;;;;;;5015089;28;20585;-80
2022/05/04 13:05:06;;;;;;;2.55;1.45;;;;;;;;;;5014747;28;20037;-78
2022/05/04 13:07:34;;;;;;;1.55;1.15;;;;;;;;;;5012348;28;20057;-78
2022/05/04 13:10:00;;;;;;;2.72;1.55;;;;;;;;;;4995951;28;20014;-76
2022/05/04 13:12:26;;;;;;;3.30;1.77;;;;;;;;;;5010996;28;20026;-78
2022/05/04 13:14:52;;;;;;;2.17;1.42;;;;;;;;;;4996217;28;20018;-79
2022/05/04 13:17:18;;;;;;;2.15;1.52;;;;;;;;;;4996170;28;20022;-79
2022/05/04 13:19:44;;;;;;;4.95;1.30;;;;;;;;;;4995877;28;20027;-79
2022/05/04 13:22:10;;;;;;;3.33;1.70;;;;;;;;;;4995941;28;20022;-78
2022/05/04 13:24:36;;;;;;;4.43;1.70;;;;;;;;;;4996251;28;20022;-79
2022/05/04 13:27:02;;;;;;;2.78;1.70;;;;;;;;;;5005294;28;20108;-79
2022/05/04 13:29:29;;;;;;;3.10;1.27;;;;;;;;;;4997711;28;20030;-79
2022/05/04 13:31:55;;;;;;;3.90;1.52;;;;;;;;;;4996133;28;20022;-79
2022/05/04 13:34:21;;;;;;;2.88;2.45;;;;;;;;;;5004699;28;20038;-78
2022/05/04 13:36:47;;;;;;;4.63;2.10;;;;;;;;;;5011447;28;20469;-78
2022/05/04 13:39:13;;;;;;;6.57;1.85;;;;;;;;;;5015223;28;20024;-78
2022/05/04 13:41:39;;;;;;;6.25;1.80;;;;;;;;;;5009586;28;20448;-78
2022/05/04 13:44:05;;;;;;;5.82;1.90;;;;;;;;;;5012217;28;20025;-81
2022/05/04 13:46:31;;;;;;;8.48;1.80;;;;;;;;;;5013024;28;20121;-80
2022/05/04 13:48:57;;;;;;;2.25;1.50;;;;;;;;;;5013073;28;20069;-79
2022/05/04 13:54:12;;;;;;;4.25;1.80;;;;;;;;;;5010052;28;20393;-80
2022/05/04 13:56:38;;;;;;;2.88;1.98;;;;;;;;;;5014907;28;20022;-82
2022/05/04 13:59:04;;;;;;;3.80;2.03;;;;;;;;;;5008499;28;20516;-81
2022/05/04 14:01:30;;;;;;;3.72;2.08;;;;;;;;;;5004999;28;20045;-80
2022/05/04 14:03:56;;;;;;;4.95;2.65;;;;;;;;;;4996232;28;20026;-82
2022/05/04 14:06:22;;;;;;;3.80;2.42;;;;;;;;;;5012000;28;20085;-78
2022/05/04 14:08:49;;;;;;;6.28;4.05;;;;;;;;;;4997910;28;20077;-80
2022/05/04 14:11:15;;;;;;;5.18;2.75;;;;;;;;;;4996707;28;20014;-81
2022/05/04 14:13:42;;;;;;;8.70;3.17;;;;;;;;;;4996076;28;20022;-81
2022/05/04 14:16:10;;;;;;;5.97;2.55;;;;;;;;;;5010340;28;20026;-78
2022/05/04 14:18:37;;;;;;;3.45;2.28;;;;;;;;;;4997557;28;20014;-81
2022/05/04 14:21:03;;;;;;;5.25;2.95;;;;;;;;;;5011598;28;20037;-77
2022/05/04 14:23:33;;;;;;;5.70;3.75;;;;;;;;;;5004122;28;20033;-77
2022/05/04 14:25:59;;;;;;;5.43;4.47;;;;;;;;;;5003664;28;20062;-78
2022/05/04 14:28:28;;;;;;;5.57;2.90;;;;;;;;;;5020351;28;20022;-76
2022/05/04 14:30:59;;;;;;;5.95;3.95;;;;;;;;;;5008166;28;20136;-77
2022/05/04 14:33:25;;;;;;;7.82;6.38;;;;;;;;;;5013553;28;20105;-79
2022/05/04 14:35:52;;;;;;;4.38;3.47;;;;;;;;;;5021476;28;20032;-77
2022/05/04 14:38:18;;;;;;;6.95;3.97;;;;;;;;;;5013938;28;20018;-77
2022/05/04 14:40:44;;;;;;;7.80;3.58;;;;;;;;;;5013801;28;20478;-77
2022/05/04 14:43:10;;;;;;;5.32;3.25;;;;;;;;;;5014080;28;20018;-76
2022/05/04 14:45:37;;;;;;;3.80;2.60;;;;;;;;;;5010543;28;20090;-76
2022/05/04 14:48:04;;;;;;;3.90;2.22;;;;;;;;;;5012857;28;20037;-79
2022/05/04 14:50:31;;;;;;;3.75;2.75;;;;;;;;;;5010101;28;20497;-76
2022/05/04 14:52:57;;;;;;;6.25;3.67;;;;;;;;;;5013354;28;20421;-77
2022/05/04 14:55:23;;;;;;;5.35;3.00;;;;;;;;;;5013652;28;20467;-78
2022/05/04 14:57:49;;;;;;;3.70;2.65;;;;;;;;;;5012284;28;20044;-77
2022/05/04 15:00:16;;;;;;;4.72;2.75;;;;;;;;;;5011539;28;20050;-78
2022/05/04 15:05:29;;;;;;;3.70;2.80;;;;;;;;;;4978934;28;20034;-80
2022/05/04 15:07:55;;;;;;;4.28;2.90;;;;;;;;;;5013343;28;20021;-77
2022/05/04 15:10:21;;;;;;;3.03;2.38;;;;;;;;;;5013563;28;20059;-78
2022/05/04 15:12:48;;;;;;;3.97;2.85;;;;;;;;;;5011875;28;20025;-78
2022/05/04 15:15:15;;;;;;;5.13;2.22;;;;;;;;;;5013162;28;20036;-78